Terminal Aerodrome Forecast
Issued by NWS

Home | Current Version | Previous Version | Graphics & Text | Print | Product List | Glossary Off
Versions: 1 2 3 4 5 6 7 8 9 10 11 12 13 14 15 16 17 18 19 20 21 22 23 24

537
FTUS43 KDDC 211120
TAFGCK
TAF
KGCK 211120Z 2112/2212 30007KT P6SM FEW250
     FM220300 08009KT P6SM VCSH OVC025
     FM221000 36018G24KT P6SM OVC050=

USA.gov is the U.S. government's official web portal to all federal, state and local government web resources and services.